Time;durP1;ratioP1;P1;durP2;ratioP2;P2;SDS_P1;SDS_P2;PMS_P1;PMS_P2;Temp;Humidity;BMP_temperature;BMP_pressure;BME280_temperature;BME280_humidity;BME280_pressure;Samples;Min_cycle;Max_cycle;Signal;HPM_P1;HPM_P2
2022/03/05 00:00:31;;;;;;;0.25;0.25;;;2.80;99.90;;;;;;6315950;22;20003;-81
2022/03/05 00:02:58;;;;;;;0.10;0.10;;;2.70;99.90;;;;;;6315714;22;20018;-81
2022/03/05 00:05:24;;;;;;;0.22;0.22;;;2.60;99.90;;;;;;6316001;22;20506;-80
2022/03/05 00:07:50;;;;;;;1.38;1.27;;;2.60;99.90;;;;;;6315619;22;20043;-82
2022/03/05 00:10:18;;;;;;;0.10;0.10;;;2.50;99.90;;;;;;6303842;22;20051;-81
2022/03/05 00:12:45;;;;;;;0.28;0.28;;;2.50;99.90;;;;;;6315725;22;20015;-82
2022/03/05 00:15:12;;;;;;;0.75;0.75;;;2.50;99.90;;;;;;6315780;22;20003;-83
2022/03/05 00:17:41;;;;;;;1.85;1.02;;;2.60;99.90;;;;;;6305782;22;20003;-83
2022/03/05 00:20:07;;;;;;;0.00;0.00;;;2.50;99.90;;;;;;6315893;22;20007;-82
2022/03/05 00:22:33;;;;;;;8.02;2.20;;;2.50;99.90;;;;;;6316018;22;20004;-82
2022/03/05 00:24:59;;;;;;;0.93;0.93;;;2.50;99.90;;;;;;6305690;22;20094;-81
2022/03/05 00:27:25;;;;;;;1.00;1.00;;;2.50;99.90;;;;;;6315840;22;20049;-81
2022/03/05 00:29:52;;;;;;;2.85;0.82;;;2.60;99.90;;;;;;6303857;22;20004;-82
2022/03/05 00:32:18;;;;;;;2.15;0.93;;;2.50;99.90;;;;;;6315726;22;20007;-82
2022/03/05 00:34:44;;;;;;;0.10;0.10;;;2.40;99.90;;;;;;6315680;22;20019;-83
2022/03/05 00:37:10;;;;;;;0.40;0.40;;;2.20;99.90;;;;;;6315720;22;20432;-82
2022/03/05 00:39:36;;;;;;;1.38;1.30;;;2.10;99.90;;;;;;6305872;22;20352;-81
2022/03/05 00:42:04;;;;;;;0.50;0.50;;;2.10;99.90;;;;;;6315748;22;20013;-82
2022/03/05 00:44:30;;;;;;;0.10;0.10;;;2.00;99.90;;;;;;6315715;22;20011;-80
2022/03/05 00:46:57;;;;;;;0.10;0.10;;;1.90;99.90;;;;;;6315708;22;20011;-82
2022/03/05 00:49:22;;;;;;;1.17;1.17;;;1.80;99.90;;;;;;6305819;22;20004;-81
2022/03/05 00:51:49;;;;;;;0.20;0.20;;;1.80;99.90;;;;;;6315363;22;20019;-82
2022/03/05 00:54:16;;;;;;;2.47;0.95;;;1.80;99.90;;;;;;6316623;22;20018;-82
2022/03/05 00:56:42;;;;;;;0.10;0.10;;;1.80;99.90;;;;;;6317616;22;20374;-81
2022/03/05 00:59:08;;;;;;;0.65;0.65;;;1.70;99.90;;;;;;6307674;22;20007;-81
2022/03/05 01:01:33;;;;;;;0.30;0.30;;;1.70;99.90;;;;;;6317611;22;20006;-82
2022/03/05 01:03:59;;;;;;;0.20;0.20;;;1.60;99.90;;;;;;6317457;22;20015;-82
2022/03/05 01:06:27;;;;;;;0.10;0.10;;;1.60;99.90;;;;;;6317649;22;20007;-81
2022/03/05 01:08:53;;;;;;;0.68;0.63;;;1.60;99.90;;;;;;6307114;22;20007;-81
2022/03/05 01:11:19;;;;;;;0.20;0.20;;;1.60;99.90;;;;;;6307233;22;20072;-81
2022/03/05 01:13:46;;;;;;;0.15;0.15;;;1.50;99.90;;;;;;6305684;22;20015;-81
2022/03/05 01:16:13;;;;;;;0.22;0.22;;;1.50;99.90;;;;;;6317744;22;20011;-81
2022/03/05 01:18:40;;;;;;;0.68;0.68;;;1.60;99.90;;;;;;6307667;22;20559;-82
2022/03/05 01:21:05;;;;;;;0.65;0.65;;;1.50;99.90;;;;;;6317999;22;20003;-81
2022/03/05 01:23:31;;;;;;;0.95;0.88;;;1.50;99.90;;;;;;6317415;22;19999;-84
2022/03/05 01:25:57;;;;;;;1.98;1.55;;;1.50;99.90;;;;;;6317760;22;20011;-81
2022/03/05 01:28:23;;;;;;;0.10;0.10;;;1.40;99.90;;;;;;6307387;22;20470;-81
2022/03/05 01:30:49;;;;;;;0.10;0.10;;;1.40;99.90;;;;;;6317208;22;20015;-81
2022/03/05 01:33:17;;;;;;;0.10;0.10;;;1.30;99.90;;;;;;6306867;22;20090;-81
2022/03/05 01:35:44;;;;;;;0.10;0.10;;;1.20;99.90;;;;;;6317429;22;20011;-82
2022/03/05 01:38:10;;;;;;;0.10;0.10;;;1.10;99.90;;;;;;6305587;22;20094;-82
2022/03/05 01:40:36;;;;;;;0.10;0.10;;;1.00;99.90;;;;;;6317463;22;20007;-82
2022/03/05 01:43:02;;;;;;;0.45;0.45;;;0.90;99.90;;;;;;6317280;22;19999;-82
2022/03/05 01:45:28;;;;;;;0.10;0.10;;;0.70;99.90;;;;;;6317493;22;20336;-82
2022/03/05 01:47:54;;;;;;;0.38;0.17;;;0.70;99.90;;;;;;6317149;22;20031;-81
2022/03/05 01:50:20;;;;;;;0.15;0.15;;;0.80;99.90;;;;;;6317355;22;20344;-82
2022/03/05 01:52:46;;;;;;;0.17;0.17;;;0.80;99.90;;;;;;6307291;22;19999;-84
2022/03/05 01:55:13;;;;;;;0.20;0.20;;;0.90;99.90;;;;;;6307714;22;20011;-83
2022/03/05 01:57:39;;;;;;;0.57;0.57;;;0.90;99.90;;;;;;6307223;22;20324;-81
2022/03/05 02:00:09;;;;;;;0.10;0.10;;;0.90;99.90;;;;;;6319921;22;20058;-80
2022/03/05 02:02:35;;;;;;;0.10;0.10;;;0.80;99.90;;;;;;6323414;22;20004;-79
2022/03/05 02:05:00;;;;;;;0.10;0.10;;;0.80;99.90;;;;;;6329325;22;20014;-80
2022/03/05 02:07:26;;;;;;;0.38;0.38;;;0.70;99.90;;;;;;6317963;22;20052;-82
2022/03/05 02:09:52;;;;;;;0.77;0.77;;;0.70;99.90;;;;;;6306477;22;20078;-80
2022/03/05 02:12:18;;;;;;;3.63;1.85;;;0.70;99.90;;;;;;6315595;22;20640;-81
2022/03/05 02:14:44;;;;;;;5.38;1.05;;;0.80;99.90;;;;;;6306256;22;20011;-81
2022/03/05 02:17:10;;;;;;;0.10;0.10;;;0.80;99.90;;;;;;6316698;22;20005;-80
2022/03/05 02:19:36;;;;;;;0.55;0.55;;;0.80;99.90;;;;;;6316843;22;20060;-80
2022/03/05 02:22:03;;;;;;;1.60;1.35;;;0.90;99.90;;;;;;6316936;22;20101;-81
2022/03/05 02:24:31;;;;;;;1.33;1.15;;;0.80;99.90;;;;;;6315176;22;20019;-82
2022/03/05 02:27:02;;;;;;;3.50;1.20;;;0.70;99.90;;;;;;6316607;22;20114;-81
2022/03/05 02:29:30;;;;;;;0.20;0.20;;;0.50;99.90;;;;;;6306884;22;20324;-82
2022/03/05 02:31:56;;;;;;;0.10;0.10;;;0.50;99.90;;;;;;6306966;22;20030;-82
2022/03/05 02:34:22;;;;;;;0.10;0.10;;;0.40;99.90;;;;;;6306650;22;20429;-82
2022/03/05 02:36:49;;;;;;;3.30;1.38;;;0.30;99.90;;;;;;6306609;22;20003;-83
2022/03/05 02:39:14;;;;;;;1.10;1.10;;;0.20;99.90;;;;;;6316825;22;20078;-83
2022/03/05 02:41:40;;;;;;;0.10;0.10;;;0.20;99.90;;;;;;6305305;22;20023;-81
2022/03/05 02:44:06;;;;;;;0.30;0.30;;;0.20;99.90;;;;;;6306046;22;20015;-82
2022/03/05 02:46:34;;;;;;;1.10;1.08;;;0.10;99.90;;;;;;6316807;22;20015;-81
2022/03/05 02:49:00;;;;;;;1.33;1.30;;;0.10;99.90;;;;;;6316701;22;20049;-82
2022/03/05 02:51:26;;;;;;;0.88;0.88;;;0.10;99.90;;;;;;6316590;22;20018;-83
2022/03/05 02:53:52;;;;;;;3.15;2.45;;;0.00;99.90;;;;;;6306058;22;20011;-85
2022/03/05 02:56:18;;;;;;;0.20;0.20;;;0.00;99.90;;;;;;6316626;22;20004;-81
2022/03/05 02:58:43;;;;;;;0.85;0.85;;;-0.10;99.90;;;;;;6306542;22;20003;-82
2022/03/05 03:01:09;;;;;;;1.95;1.85;;;-0.20;99.90;;;;;;6306587;22;20022;-81
2022/03/05 03:03:35;;;;;;;0.35;0.35;;;-0.20;99.90;;;;;;6316623;22;20004;-82
2022/03/05 03:06:01;;;;;;;0.68;0.68;;;-0.20;99.90;;;;;;6316615;22;20375;-82
2022/03/05 03:08:27;;;;;;;0.80;0.80;;;-0.30;99.90;;;;;;6306593;22;20013;-80
2022/03/05 03:10:52;;;;;;;1.17;1.13;;;-0.30;99.90;;;;;;6306276;22;20113;-81
2022/03/05 03:13:18;;;;;;;0.40;0.40;;;-0.40;99.90;;;;;;6316461;22;20201;-82
2022/03/05 03:15:44;;;;;;;0.82;0.82;;;-0.40;99.90;;;;;;6306554;22;20018;-83
2022/03/05 03:18:10;;;;;;;1.60;1.50;;;-0.40;99.90;;;;;;6306131;22;20086;-81
2022/03/05 03:20:35;;;;;;;0.73;0.73;;;-0.50;99.90;;;;;;6306507;22;20003;-81
2022/03/05 03:23:02;;;;;;;0.57;0.57;;;-0.60;99.90;;;;;;6306288;22;20011;-81
2022/03/05 03:25:28;;;;;;;0.10;0.10;;;-0.60;99.90;;;;;;6306455;22;20019;-82
2022/03/05 03:27:54;;;;;;;0.75;0.75;;;-0.60;99.90;;;;;;6316394;22;20007;-80
2022/03/05 03:30:20;;;;;;;0.55;0.55;;;-0.70;99.90;;;;;;6316422;22;20098;-82
2022/03/05 03:32:47;;;;;;;0.30;0.30;;;-0.70;99.90;;;;;;6304701;22;20004;-81
2022/03/05 03:35:14;;;;;;;0.55;0.55;;;-0.80;99.90;;;;;;6305904;22;20007;-81
2022/03/05 03:37:41;;;;;;;0.82;0.82;;;-0.80;99.90;;;;;;6316337;22;20412;-83
2022/03/05 03:40:09;;;;;;;0.20;0.20;;;-0.90;99.90;;;;;;6316210;22;20064;-82
2022/03/05 03:42:36;;;;;;;0.22;0.22;;;-0.90;99.90;;;;;;6316402;22;20007;-81
2022/03/05 03:45:03;;;;;;;0.17;0.17;;;-0.90;99.90;;;;;;6314424;22;20015;-80
2022/03/05 03:47:29;;;;;;;1.13;1.10;;;-1.00;99.90;;;;;;6314739;22;20497;-82
2022/03/05 03:49:55;;;;;;;0.30;0.30;;;-1.00;99.90;;;;;;6315763;22;20007;-80
2022/03/05 03:52:21;;;;;;;0.20;0.20;;;-1.00;99.90;;;;;;6316291;22;20078;-84
2022/03/05 03:54:49;;;;;;;0.98;0.98;;;-1.00;99.90;;;;;;6305815;22;20038;-81
2022/03/05 03:57:15;;;;;;;1.20;1.13;;;-1.10;99.90;;;;;;6306041;22;20042;-80
2022/03/05 03:59:40;;;;;;;0.70;0.70;;;-1.10;99.90;;;;;;6304337;22;20057;-80
2022/03/05 04:02:08;;;;;;;0.68;0.68;;;-1.10;99.90;;;;;;6314724;22;20007;-81
2022/03/05 04:04:33;;;;;;;0.50;0.50;;;-1.20;99.90;;;;;;6306472;22;20038;-80
2022/03/05 04:09:43;;;;;;;1.23;1.13;;;-1.20;99.90;;;;;;6317808;22;20108;-81
2022/03/05 04:12:09;;;;;;;0.10;0.10;;;-1.30;99.90;;;;;;6316704;22;20011;-81
2022/03/05 04:14:38;;;;;;;0.47;0.47;;;-1.30;99.90;;;;;;6308546;22;20428;-81
2022/03/05 04:17:04;;;;;;;2.33;1.98;;;-1.30;99.90;;;;;;6307062;22;20478;-81
2022/03/05 04:19:30;;;;;;;0.15;0.15;;;-1.30;99.90;;;;;;6315923;22;20074;-80
2022/03/05 04:21:56;;;;;;;0.88;0.88;;;-1.40;99.90;;;;;;6306036;22;20003;-82
2022/03/05 04:24:21;;;;;;;0.10;0.10;;;-1.40;99.90;;;;;;6305911;22;20007;-79
2022/03/05 04:26:47;;;;;;;0.10;0.10;;;-1.40;99.90;;;;;;6306216;22;20007;-83
2022/03/05 04:29:13;;;;;;;0.10;0.10;;;-1.40;99.90;;;;;;6316738;22;20020;-81
2022/03/05 04:31:38;;;;;;;0.10;0.10;;;-1.40;99.90;;;;;;6308195;22;20033;-81
2022/03/05 04:34:04;;;;;;;0.10;0.10;;;-1.40;99.90;;;;;;6318050;22;20337;-80
2022/03/05 04:36:30;;;;;;;0.20;0.20;;;-1.40;99.90;;;;;;6308083;22;20007;-81
2022/03/05 04:38:55;;;;;;;0.10;0.10;;;-1.40;99.90;;;;;;6318113;22;20003;-82
2022/03/05 04:41:22;;;;;;;0.10;0.10;;;-1.40;99.90;;;;;;6318063;22;20082;-82
2022/03/05 04:43:48;;;;;;;0.10;0.10;;;-1.40;99.90;;;;;;6318053;22;20003;-81
2022/03/05 04:46:15;;;;;;;0.75;0.75;;;-1.50;99.90;;;;;;6307962;22;20049;-82
2022/03/05 04:48:41;;;;;;;2.08;1.20;;;-1.50;99.90;;;;;;6318065;22;20052;-81
2022/03/05 04:51:07;;;;;;;0.10;0.10;;;-1.50;99.90;;;;;;6317778;22;20015;-81
2022/03/05 04:53:33;;;;;;;0.40;0.40;;;-1.40;99.90;;;;;;6307794;22;20030;-80
2022/03/05 04:55:58;;;;;;;0.20;0.20;;;-1.50;99.90;;;;;;6317765;22;20439;-81
2022/03/05 04:58:24;;;;;;;0.10;0.10;;;-1.50;99.90;;;;;;6318117;22;20052;-81
2022/03/05 05:00:50;;;;;;;0.22;0.22;;;-1.50;99.90;;;;;;6317717;22;20336;-81
2022/03/05 05:03:16;;;;;;;0.10;0.10;;;-1.50;99.90;;;;;;6307906;22;20010;-80
2022/03/05 05:05:41;;;;;;;0.13;0.13;;;-1.60;99.90;;;;;;6317783;22;20386;-82
2022/03/05 05:08:07;;;;;;;0.30;0.30;;;-1.60;99.90;;;;;;6317646;22;20011;-80
2022/03/05 05:10:33;;;;;;;0.10;0.10;;;-1.60;99.90;;;;;;6317715;22;20018;-81
2022/03/05 05:12:59;;;;;;;2.00;1.85;;;-1.60;99.90;;;;;;6305699;22;20009;-83
2022/03/05 05:15:25;;;;;;;0.30;0.30;;;-1.60;99.90;;;;;;6317551;22;20401;-81
2022/03/05 05:17:51;;;;;;;0.73;0.73;;;-1.60;99.90;;;;;;6317687;22;20010;-80
2022/03/05 05:20:16;;;;;;;0.20;0.20;;;-1.60;99.90;;;;;;6317657;22;20042;-81
2022/03/05 05:22:42;;;;;;;1.08;1.05;;;-1.60;99.90;;;;;;6307746;22;20029;-82
2022/03/05 05:25:08;;;;;;;2.03;0.80;;;-1.60;99.90;;;;;;6307088;22;20030;-80
2022/03/05 05:27:38;;;;;;;0.10;0.10;;;-1.70;99.90;;;;;;6317837;22;20007;-81
2022/03/05 05:30:07;;;;;;;0.73;0.73;;;-1.70;99.90;;;;;;6317613;22;20487;-80
2022/03/05 05:32:33;;;;;;;0.20;0.20;;;-1.70;99.90;;;;;;6307618;22;20331;-82
2022/03/05 05:34:59;;;;;;;9.07;3.75;;;-1.70;99.90;;;;;;6317559;22;20015;-81
2022/03/05 05:37:24;;;;;;;0.10;0.10;;;-1.80;99.90;;;;;;6317528;22;20429;-81
2022/03/05 05:39:50;;;;;;;0.63;0.63;;;-1.80;99.90;;;;;;6317213;22;20003;-82
2022/03/05 05:42:16;;;;;;;0.45;0.45;;;-1.80;99.90;;;;;;6317151;22;20015;-81
2022/03/05 05:44:42;;;;;;;2.63;1.77;;;-1.80;99.90;;;;;;6306863;22;20011;-81
2022/03/05 05:47:09;;;;;;;0.30;0.30;;;-1.80;99.90;;;;;;6317374;22;20080;-81
2022/03/05 05:49:35;;;;;;;0.95;0.95;;;-1.90;99.90;;;;;;6307247;22;20440;-76
2022/03/05 05:52:03;;;;;;;0.10;0.10;;;-1.90;99.90;;;;;;6303828;22;20015;-76
2022/03/05 05:54:29;;;;;;;0.10;0.10;;;-1.90;99.90;;;;;;6317446;22;20034;-75
2022/03/05 05:56:54;;;;;;;0.10;0.10;;;-1.90;99.90;;;;;;6306826;22;20011;-73
2022/03/05 05:59:20;;;;;;;0.30;0.30;;;-1.80;99.90;;;;;;6317360;22;20007;-73
2022/03/05 06:01:46;;;;;;;0.10;0.10;;;-1.90;99.90;;;;;;6306357;22;20000;-77
2022/03/05 06:04:12;;;;;;;0.40;0.40;;;-1.90;99.90;;;;;;6306655;22;20440;-72
2022/03/05 06:06:38;;;;;;;0.20;0.20;;;-1.90;99.90;;;;;;6317092;22;20004;-77
2022/03/05 06:09:04;;;;;;;1.95;1.85;;;-1.80;99.90;;;;;;6307165;22;20033;-75
2022/03/05 06:11:30;;;;;;;0.47;0.47;;;-1.90;99.90;;;;;;6317291;22;20011;-71
2022/03/05 06:13:56;;;;;;;2.95;1.55;;;-1.80;99.90;;;;;;6316814;22;20328;-68
2022/03/05 06:16:22;;;;;;;0.10;0.10;;;-2.00;99.90;;;;;;6307116;22;20015;-73
2022/03/05 06:18:48;;;;;;;5.22;1.88;;;-2.00;99.90;;;;;;6317325;22;20433;-74
2022/03/05 06:21:14;;;;;;;4.03;1.60;;;-2.10;99.90;;;;;;6306811;22;20133;-77
2022/03/05 06:23:39;;;;;;;2.20;2.10;;;-2.10;99.90;;;;;;6307072;22;20086;-72
2022/03/05 06:26:06;;;;;;;2.50;2.20;;;-2.20;99.90;;;;;;6316786;22;19999;-70
2022/03/05 06:28:33;;;;;;;0.57;0.57;;;-2.20;99.90;;;;;;6317014;22;20035;-77
2022/03/05 06:30:59;;;;;;;5.90;3.42;;;-2.20;99.90;;;;;;6316895;22;20042;-75
2022/03/05 06:33:26;;;;;;;0.80;0.80;;;-2.30;99.90;;;;;;6306665;22;20018;-78
2022/03/05 06:35:52;;;;;;;0.20;0.20;;;-2.20;99.90;;;;;;6316726;22;20011;-77
2022/03/05 06:38:17;;;;;;;0.15;0.15;;;-2.10;99.90;;;;;;6306556;22;20003;-77
2022/03/05 06:40:44;;;;;;;0.80;0.75;;;-2.00;99.90;;;;;;6317035;22;20475;-78
2022/03/05 06:43:11;;;;;;;2.92;2.72;;;-2.00;99.90;;;;;;6306631;22;20004;-73
2022/03/05 06:45:37;;;;;;;1.85;1.75;;;-1.90;99.90;;;;;;6316700;22;19999;-70
2022/03/05 06:48:04;;;;;;;0.40;0.40;;;-1.70;99.90;;;;;;6304609;22;20333;-72
2022/03/05 06:50:31;;;;;;;0.80;0.80;;;-1.70;99.90;;;;;;6315080;22;20587;-70
2022/03/05 06:52:57;;;;;;;3.45;0.68;;;-1.60;99.90;;;;;;6306255;22;20007;-72
2022/03/05 06:55:23;;;;;;;0.43;0.43;;;-1.60;99.90;;;;;;6315327;22;20036;-72
2022/03/05 06:57:49;;;;;;;0.40;0.40;;;-1.50;99.90;;;;;;6316742;22;20440;-71
2022/03/05 07:00:16;;;;;;;0.20;0.20;;;-1.40;99.90;;;;;;6316641;22;20823;-79
2022/03/05 07:02:43;;;;;;;1.30;1.25;;;-1.40;99.90;;;;;;6306680;22;20022;-79
2022/03/05 07:05:10;;;;;;;0.10;0.10;;;-1.30;99.90;;;;;;6306757;22;20060;-78
2022/03/05 07:07:36;;;;;;;0.13;0.13;;;-1.20;99.90;;;;;;6316803;22;20030;-79
2022/03/05 07:10:04;;;;;;;0.10;0.10;;;-1.10;99.90;;;;;;6306501;22;20068;-70
2022/03/05 07:12:30;;;;;;;3.95;2.63;;;-1.10;99.90;;;;;;6316652;22;20041;-78
2022/03/05 07:14:58;;;;;;;0.10;0.10;;;-1.00;99.90;;;;;;6316703;22;20011;-77
2022/03/05 07:17:24;;;;;;;0.45;0.45;;;-0.90;99.90;;;;;;6316572;22;20309;-72
2022/03/05 07:19:50;;;;;;;0.45;0.45;;;-0.90;99.90;;;;;;6306645;22;20046;-71
2022/03/05 07:22:16;;;;;;;0.10;0.10;;;-0.90;99.90;;;;;;6315822;22;20608;-74
2022/03/05 07:24:42;;;;;;;1.98;1.85;;;-0.80;99.90;;;;;;6316813;22;20011;-71
2022/03/05 07:27:08;;;;;;;0.20;0.20;;;-0.70;99.90;;;;;;6316529;22;20011;-73
2022/03/05 07:29:33;;;;;;;0.57;0.57;;;-0.60;99.90;;;;;;6306628;22;20011;-72
2022/03/05 07:31:59;;;;;;;0.47;0.47;;;-0.50;99.90;;;;;;6306280;22;20015;-73
2022/03/05 07:34:26;;;;;;;1.00;1.00;;;-0.40;99.90;;;;;;6306277;22;20011;-75
2022/03/05 07:36:51;;;;;;;0.50;0.50;;;-0.40;99.90;;;;;;6314829;22;20011;-73
2022/03/05 07:39:17;;;;;;;0.10;0.10;;;-0.40;99.90;;;;;;6306294;22;20349;-75
2022/03/05 07:41:43;;;;;;;4.45;2.78;;;-0.20;99.90;;;;;;6316537;22;20009;-71
2022/03/05 07:44:09;;;;;;;0.63;0.63;;;-0.20;99.90;;;;;;6316129;22;20007;-71
2022/03/05 07:46:38;;;;;;;3.17;2.17;;;-0.10;99.90;;;;;;6306292;22;20006;-67
2022/03/05 07:49:05;;;;;;;2.28;0.68;;;0.00;99.90;;;;;;6316164;22;20444;-74
2022/03/05 07:51:32;;;;;;;3.50;2.38;;;0.10;99.90;;;;;;6315979;22;20014;-72
2022/03/05 07:54:01;;;;;;;4.55;1.00;;;0.10;99.90;;;;;;6315706;22;20011;-69
2022/03/05 07:56:27;;;;;;;0.98;0.88;;;0.20;99.90;;;;;;6316197;22;20025;-73
2022/03/05 07:58:53;;;;;;;0.68;0.68;;;0.40;99.90;;;;;;6303984;22;20296;-72
2022/03/05 08:01:19;;;;;;;3.20;2.90;;;0.50;99.90;;;;;;6305764;22;20003;-72
2022/03/05 08:03:44;;;;;;;0.10;0.10;;;0.60;99.90;;;;;;6315719;22;20003;-73
2022/03/05 08:06:10;;;;;;;0.38;0.38;;;0.70;99.90;;;;;;6314430;22;20011;-74
2022/03/05 08:08:36;;;;;;;1.15;1.15;;;0.80;99.90;;;;;;6315902;22;20003;-73
2022/03/05 08:11:03;;;;;;;1.80;1.17;;;0.90;99.90;;;;;;6315811;22;20011;-72
2022/03/05 08:13:29;;;;;;;0.82;0.63;;;1.00;99.90;;;;;;6316057;22;20003;-72
2022/03/05 08:15:56;;;;;;;0.38;0.38;;;1.00;99.90;;;;;;6304605;22;20022;-72
2022/03/05 08:18:22;;;;;;;3.17;2.17;;;1.10;99.90;;;;;;6315719;22;20080;-73
2022/03/05 08:20:48;;;;;;;3.78;3.40;;;1.20;99.90;;;;;;6306150;22;20007;-72
2022/03/05 08:23:14;;;;;;;1.98;1.45;;;1.30;99.90;;;;;;6315709;22;20003;-70
2022/03/05 08:25:41;;;;;;;1.23;1.13;;;1.40;99.90;;;;;;6306097;22;20374;-70
2022/03/05 08:28:07;;;;;;;0.52;0.52;;;1.50;99.90;;;;;;6305657;22;20011;-72
2022/03/05 08:30:33;;;;;;;0.10;0.10;;;1.60;99.90;;;;;;6316137;22;20007;-68
2022/03/05 08:32:59;;;;;;;0.52;0.52;;;1.70;99.90;;;;;;6315926;22;20011;-74
2022/03/05 08:35:25;;;;;;;0.20;0.20;;;1.80;99.90;;;;;;6315943;22;20011;-70
2022/03/05 08:37:52;;;;;;;0.47;0.47;;;1.90;99.90;;;;;;6305793;22;20056;-71
2022/03/05 08:40:19;;;;;;;0.80;0.80;;;2.00;99.90;;;;;;6305787;22;20098;-68
2022/03/05 08:42:48;;;;;;;0.52;0.52;;;2.00;99.90;;;;;;6315564;22;20018;-71
2022/03/05 08:45:14;;;;;;;6.85;3.65;;;2.10;99.90;;;;;;6305727;22;20018;-73
2022/03/05 08:47:41;;;;;;;0.70;0.70;;;2.20;99.90;;;;;;6316141;22;20022;-71
2022/03/05 08:50:08;;;;;;;0.30;0.30;;;2.40;99.90;;;;;;6315678;22;20014;-69
2022/03/05 08:52:37;;;;;;;0.52;0.52;;;2.50;99.90;;;;;;6305776;22;20042;-67
2022/03/05 08:55:16;;;;;;;3.33;2.70;;;2.60;99.90;;;;;;6277992;22;20480;-75
2022/03/05 08:57:45;;;;;;;1.70;1.13;;;2.70;99.90;;;;;;6315842;22;20000;-75
2022/03/05 09:00:15;;;;;;;0.30;0.30;;;2.80;99.90;;;;;;6305529;22;19999;-75
2022/03/05 09:02:40;;;;;;;1.48;1.38;;;2.90;99.90;;;;;;6305838;22;20011;-77
2022/03/05 09:05:07;;;;;;;7.35;2.42;;;3.00;99.90;;;;;;6315717;22;20087;-76
2022/03/05 09:07:32;;;;;;;0.63;0.63;;;3.10;99.90;;;;;;6305503;22;20462;-78
2022/03/05 09:09:58;;;;;;;0.32;0.32;;;3.20;99.90;;;;;;6305707;22;20008;-78
2022/03/05 09:12:24;;;;;;;0.80;0.80;;;3.20;99.90;;;;;;6305475;22;20082;-78
2022/03/05 09:14:50;;;;;;;0.95;0.95;;;3.40;99.90;;;;;;6306062;22;20042;-73
2022/03/05 09:17:16;;;;;;;0.95;0.90;;;3.50;99.90;;;;;;6317988;22;20006;-74
2022/03/05 09:19:42;;;;;;;1.65;1.55;;;3.70;99.90;;;;;;6317702;22;20018;-74
2022/03/05 09:22:10;;;;;;;0.75;0.68;;;3.90;99.90;;;;;;6317159;22;20078;-74
2022/03/05 09:24:39;;;;;;;0.10;0.10;;;3.80;99.90;;;;;;6307137;22;20011;-76
2022/03/05 09:27:05;;;;;;;0.57;0.57;;;4.10;99.90;;;;;;6268478;22;20472;-74
2022/03/05 09:29:32;;;;;;;0.10;0.10;;;4.20;99.90;;;;;;6291273;22;20010;-71
2022/03/05 09:31:57;;;;;;;0.40;0.40;;;4.30;99.90;;;;;;6286615;22;20012;-75
2022/03/05 09:34:23;;;;;;;0.82;0.82;;;4.50;99.90;;;;;;6285881;22;20090;-75
2022/03/05 09:36:49;;;;;;;1.10;1.00;;;4.60;99.90;;;;;;6283380;22;20011;-74
2022/03/05 09:39:15;;;;;;;0.10;0.10;;;4.80;99.70;;;;;;6283125;22;20008;-75
2022/03/05 09:41:41;;;;;;;0.10;0.10;;;5.20;98.90;;;;;;6285897;22;20011;-73
2022/03/05 09:44:07;;;;;;;0.30;0.30;;;5.20;98.30;;;;;;6285898;22;20016;-74
2022/03/05 09:46:35;;;;;;;0.17;0.17;;;5.30;97.60;;;;;;6274576;22;20329;-74
2022/03/05 09:49:03;;;;;;;0.20;0.20;;;5.50;97.50;;;;;;6286038;22;20008;-74
2022/03/05 09:51:30;;;;;;;13.38;2.78;;;5.60;97.40;;;;;;6259087;22;20016;-74
2022/03/05 09:53:57;;;;;;;1.33;0.93;;;5.80;97.50;;;;;;6274132;22;20023;-74
2022/03/05 09:56:23;;;;;;;4.05;1.70;;;6.00;96.60;;;;;;6274292;22;20357;-74
2022/03/05 09:58:51;;;;;;;0.30;0.30;;;6.10;96.60;;;;;;6284775;22;20006;-74
2022/03/05 10:01:18;;;;;;;1.42;1.33;;;6.40;96.60;;;;;;6274382;22;20089;-74
2022/03/05 10:03:48;;;;;;;1.23;1.20;;;6.70;95.80;;;;;;6276068;22;20000;-73
2022/03/05 10:06:28;;;;;;;0.05;0.05;;;6.90;95.50;;;;;;6285846;22;20019;-73
2022/03/05 10:08:55;;;;;;;4.45;1.95;;;6.80;94.30;;;;;;6249297;22;20007;-73
2022/03/05 10:11:37;;;;;;;1.92;1.70;;;6.90;94.20;;;;;;6285831;22;20016;-74
2022/03/05 10:14:14;;;;;;;;;;;6.90;93.60;;;;;;6284859;22;20011;-74
2022/03/05 10:16:39;;;;;;;0.22;0.22;;;6.80;93.10;;;;;;6248897;22;20248;-74
2022/03/05 10:19:22;;;;;;;1.92;1.02;;;7.10;93.10;;;;;;6284255;22;20014;-74
2022/03/05 10:22:04;;;;;;;2.00;1.35;;;7.20;90.80;;;;;;6285770;22;20042;-74
2022/03/05 10:24:37;;;;;;;0.20;0.20;;;7.30;90.00;;;;;;6274442;22;20035;-74
2022/03/05 10:27:06;;;;;;;0.35;0.35;;;7.30;85.20;;;;;;6274198;22;20007;-74
2022/03/05 10:29:36;;;;;;;0.00;0.00;;;7.20;84.10;;;;;;6276025;22;20000;-74
2022/03/05 10:32:10;;;;;;;0.43;0.40;;;7.40;82.80;;;;;;6285591;22;20019;-74
2022/03/05 10:34:41;;;;;;;0.55;0.55;;;7.70;84.00;;;;;;6285627;22;20395;-73
2022/03/05 10:37:08;;;;;;;0.50;0.50;;;8.10;83.50;;;;;;6275489;22;20011;-73
2022/03/05 10:39:34;;;;;;;0.55;0.55;;;7.70;81.90;;;;;;6248873;22;20006;-73
2022/03/05 10:42:00;;;;;;;0.82;0.80;;;8.10;82.80;;;;;;6285683;22;20004;-73
2022/03/05 10:44:27;;;;;;;1.15;1.15;;;8.10;82.50;;;;;;6283797;22;20668;-73
2022/03/05 10:46:59;;;;;;;0.25;0.25;;;8.40;84.20;;;;;;6285616;22;20082;-73
2022/03/05 10:49:36;;;;;;;0.47;0.47;;;8.40;82.20;;;;;;6285535;22;20333;-73
2022/03/05 10:52:09;;;;;;;1.30;1.20;;;8.60;82.20;;;;;;6273642;22;20024;-74
2022/03/05 10:54:43;;;;;;;0.63;0.63;;;8.70;81.00;;;;;;6285534;22;20007;-74
2022/03/05 10:57:14;;;;;;;0.75;0.75;;;8.10;78.90;;;;;;6285666;22;20012;-74
2022/03/05 10:59:43;;;;;;;0.10;0.10;;;7.80;80.50;;;;;;6285536;22;20065;-75
2022/03/05 11:02:12;;;;;;;0.63;0.63;;;8.40;82.00;;;;;;6285276;22;20065;-74
2022/03/05 11:04:48;;;;;;;0.00;0.00;;;8.70;79.10;;;;;;6273823;22;20007;-74
2022/03/05 11:07:17;;;;;;;0.65;0.52;;;9.30;77.60;;;;;;6275121;22;20014;-74
2022/03/05 11:09:43;;;;;;;0.73;0.73;;;8.00;76.60;;;;;;6283950;22;20329;-73
2022/03/05 11:12:16;;;;;;;0.00;0.00;;;8.30;78.80;;;;;;6273434;22;20010;-75
2022/03/05 11:14:47;;;;;;;0.10;0.10;;;9.20;77.20;;;;;;6283866;22;20098;-75
2022/03/05 11:17:14;;;;;;;0.82;0.82;;;9.60;73.70;;;;;;6275277;22;20004;-74
2022/03/05 11:19:40;;;;;;;1.02;1.02;;;9.60;71.90;;;;;;6275328;22;20459;-74
2022/03/05 11:22:08;;;;;;;1.23;1.13;;;9.60;71.80;;;;;;6274737;22;20027;-73
2022/03/05 11:24:38;;;;;;;0.00;0.00;;;10.20;70.30;;;;;;6248304;22;20012;-73
2022/03/05 11:27:04;;;;;;;0.63;0.63;;;10.40;68.80;;;;;;6274054;22;20038;-68
2022/03/05 11:29:57;;;;;;;0.10;0.10;;;10.70;67.70;;;;;;6273328;22;20023;-69
2022/03/05 11:32:32;;;;;;;0.00;0.00;;;10.40;64.30;;;;;;6275067;22;20096;-72
2022/03/05 11:34:59;;;;;;;0.52;0.50;;;10.40;66.50;;;;;;6283699;22;20007;-71
2022/03/05 11:37:29;;;;;;;0.15;0.15;;;10.70;65.00;;;;;;6283104;22;20440;-71
2022/03/05 11:39:55;;;;;;;0.00;0.00;;;11.10;63.20;;;;;;6271789;22;20008;-77
2022/03/05 11:42:38;;;;;;;0.00;0.00;;;11.60;61.30;;;;;;6283418;22;20011;-76
2022/03/05 11:45:30;;;;;;;3.13;1.67;;;10.50;60.60;;;;;;6283711;22;20008;-76
2022/03/05 11:48:22;;;;;;;0.52;0.52;;;11.00;61.80;;;;;;6285420;22;20078;-79
2022/03/05 11:50:53;;;;;;;3.45;2.33;;;10.60;60.40;;;;;;6258599;22;20022;-76
2022/03/05 11:53:19;;;;;;;0.20;0.20;;;10.30;59.70;;;;;;6285064;22;20010;-80
2022/03/05 11:55:47;;;;;;;0.08;0.08;;;11.40;58.80;;;;;;6275155;22;20011;-74
2022/03/05 11:58:12;;;;;;;0.25;0.15;;;12.00;57.10;;;;;;6248133;22;20083;-80
2022/03/05 12:00:39;;;;;;;0.25;0.25;;;11.90;56.10;;;;;;6285073;22;20042;-75
2022/03/05 12:03:06;;;;;;;0.47;0.47;;;11.60;55.80;;;;;;6284751;22;20026;-74
2022/03/05 12:05:38;;;;;;;0.10;0.10;;;11.10;58.00;;;;;;6283311;22;20263;-75
2022/03/05 12:08:06;;;;;;;0.05;0.05;;;11.30;58.40;;;;;;6274668;22;20016;-74
2022/03/05 12:10:34;;;;;;;0.08;0.08;;;10.50;58.30;;;;;;6274647;22;20023;-77
2022/03/05 12:13:04;;;;;;;0.08;0.08;;;10.20;57.60;;;;;;6283208;22;20352;-77
2022/03/05 12:15:42;;;;;;;0.20;0.20;;;10.50;57.70;;;;;;6274998;22;20016;-75
2022/03/05 12:18:15;;;;;;;0.00;0.00;;;10.90;57.00;;;;;;6284946;22;20003;-72
2022/03/05 12:20:45;;;;;;;0.00;0.00;;;10.50;58.00;;;;;;6284986;22;20015;-76
2022/03/05 12:23:17;;;;;;;0.17;0.17;;;10.70;58.70;;;;;;6273167;22;20090;-77
2022/03/05 12:25:46;;;;;;;0.13;0.10;;;11.80;57.20;;;;;;6283811;22;20004;-79
2022/03/05 12:28:15;;;;;;;0.20;0.20;;;12.20;56.00;;;;;;6283031;22;20004;-69
2022/03/05 12:30:41;;;;;;;0.32;0.32;;;11.60;57.30;;;;;;6273313;22;20004;-67
2022/03/05 12:33:16;;;;;;;0.60;0.57;;;12.20;56.30;;;;;;6274878;22;20018;-72
2022/03/05 12:35:44;;;;;;;8.40;0.52;;;11.90;56.30;;;;;;6284679;22;20018;-69
2022/03/05 12:38:11;;;;;;;0.10;0.10;;;10.70;57.60;;;;;;6283015;22;20011;-70
2022/03/05 12:40:37;;;;;;;1.95;0.73;;;10.90;58.30;;;;;;6283183;22;20087;-80
2022/03/05 12:43:07;;;;;;;0.03;0.03;;;11.70;56.40;;;;;;6247386;22;20007;-68
2022/03/05 12:45:40;;;;;;;0.52;0.52;;;12.60;55.00;;;;;;6282723;22;20008;-73
2022/03/05 12:48:18;;;;;;;1.90;1.15;;;11.40;55.40;;;;;;6274923;22;20015;-73
2022/03/05 12:50:53;;;;;;;2.85;1.35;;;10.80;58.20;;;;;;6284272;22;20436;-66
2022/03/05 12:53:26;;;;;;;0.80;0.77;;;11.30;57.50;;;;;;6284698;22;20007;-72
2022/03/05 12:55:59;;;;;;;0.00;0.00;;;12.40;54.40;;;;;;6286381;22;20039;-79